Time;durP1;ratioP1;P1;durP2;ratioP2;P2;SDS_P1;SDS_P2;PMS_P1;PMS_P2;Temp;Humidity;BMP_temperature;BMP_pressure;BME280_temperature;BME280_humidity;BME280_pressure;Samples;Min_cycle;Max_cycle;Signal;HPM_P1;HPM_P2
2022/01/04 00:00:36;;;;;;;0.40;0.40;;;7.50;99.90;;;;;;5033060;28;20189;-73
2022/01/04 00:03:02;;;;;;;0.10;0.10;;;7.40;99.90;;;;;;5034237;28;20184;-73
2022/01/04 00:05:28;;;;;;;0.00;0.00;;;7.40;99.90;;;;;;5034230;28;20328;-73
2022/01/04 00:07:53;;;;;;;0.00;0.00;;;7.40;99.90;;;;;;5033754;28;20190;-73
2022/01/04 00:10:22;;;;;;;0.20;0.20;;;7.40;99.90;;;;;;5034155;28;20213;-73
2022/01/04 00:15:33;;;;;;;0.00;0.00;;;7.40;99.90;;;;;;5034393;28;20775;-73
2022/01/04 00:17:59;;;;;;;0.60;0.13;;;7.30;99.90;;;;;;5033533;28;20201;-73
2022/01/04 00:20:24;;;;;;;0.00;0.00;;;7.30;99.90;;;;;;5032653;28;20282;-74
2022/01/04 00:22:50;;;;;;;0.10;0.10;;;7.30;99.90;;;;;;5034295;28;20188;-74
2022/01/04 00:25:16;;;;;;;0.00;0.00;;;7.30;99.90;;;;;;5033803;28;20637;-74
2022/01/04 00:27:42;;;;;;;1.80;0.60;;;7.30;99.90;;;;;;5033546;28;20201;-74
2022/01/04 00:30:08;;;;;;;0.10;0.10;;;7.30;99.90;;;;;;5033669;28;20248;-74
2022/01/04 00:32:34;;;;;;;0.00;0.00;;;7.30;99.90;;;;;;5033579;28;20186;-74
2022/01/04 00:34:59;;;;;;;0.63;0.63;;;7.30;99.90;;;;;;5032117;28;20635;-74
2022/01/04 00:37:25;;;;;;;0.00;0.00;;;7.30;99.90;;;;;;5032014;28;20184;-74
2022/01/04 00:39:50;;;;;;;0.23;0.23;;;7.30;99.90;;;;;;5033463;28;20197;-74
2022/01/04 00:42:16;;;;;;;0.00;0.00;;;7.20;99.90;;;;;;5033334;28;20231;-74
2022/01/04 00:44:41;;;;;;;0.00;0.00;;;7.20;99.90;;;;;;5033554;28;20257;-74
2022/01/04 00:47:09;;;;;;;0.10;0.10;;;7.20;99.90;;;;;;5047633;28;20224;-74
2022/01/04 00:49:35;;;;;;;0.00;0.00;;;7.20;99.90;;;;;;5033334;28;20244;-73
2022/01/04 00:52:01;;;;;;;0.00;0.00;;;7.20;99.90;;;;;;5043265;28;20699;-77
2022/01/04 00:54:27;;;;;;;0.10;0.10;;;7.20;99.90;;;;;;5033499;28;20209;-73
2022/01/04 00:56:52;;;;;;;0.10;0.10;;;7.20;99.90;;;;;;5032730;28;20261;-73
2022/01/04 00:59:18;;;;;;;0.00;0.00;;;7.20;99.90;;;;;;5031997;28;20293;-73
2022/01/04 01:01:44;;;;;;;0.00;0.00;;;7.20;99.90;;;;;;5031611;28;20189;-72
2022/01/04 01:04:10;;;;;;;0.00;0.00;;;7.20;99.90;;;;;;5043075;28;20187;-74
2022/01/04 01:06:36;;;;;;;0.00;0.00;;;7.20;99.90;;;;;;5039959;28;20233;-74
2022/01/04 01:09:03;;;;;;;0.00;0.00;;;7.10;99.90;;;;;;5033718;28;20202;-74
2022/01/04 01:11:28;;;;;;;0.00;0.00;;;7.20;99.90;;;;;;5043276;28;20524;-75
2022/01/04 01:13:54;;;;;;;0.00;0.00;;;7.20;99.90;;;;;;5034153;28;20220;-75
2022/01/04 01:16:20;;;;;;;0.00;0.00;;;7.10;99.90;;;;;;5032803;28;20573;-74
2022/01/04 01:18:45;;;;;;;0.10;0.10;;;7.10;99.90;;;;;;5032574;28;20351;-74
2022/01/04 01:21:11;;;;;;;0.00;0.00;;;7.10;99.90;;;;;;5038268;28;20178;-74
2022/01/04 01:23:37;;;;;;;0.00;0.00;;;7.10;99.90;;;;;;5032678;28;20186;-73
2022/01/04 01:26:06;;;;;;;0.00;0.00;;;7.10;99.90;;;;;;5032136;28;20181;-74
2022/01/04 01:28:33;;;;;;;0.27;0.17;;;7.10;99.90;;;;;;5031185;28;20293;-73
2022/01/04 01:30:59;;;;;;;0.10;0.10;;;7.10;99.90;;;;;;5031412;28;20182;-74
2022/01/04 01:33:27;;;;;;;0.00;0.00;;;7.20;99.90;;;;;;5032428;28;20225;-74
2022/01/04 01:35:52;;;;;;;0.00;0.00;;;7.20;99.90;;;;;;5032138;28;20232;-74
2022/01/04 01:38:19;;;;;;;0.00;0.00;;;7.10;99.90;;;;;;5049679;28;20201;-74
2022/01/04 01:40:46;;;;;;;0.00;0.00;;;7.10;99.90;;;;;;5032266;28;20177;-74
2022/01/04 01:43:12;;;;;;;0.00;0.00;;;7.10;99.90;;;;;;5032449;28;20185;-74
2022/01/04 01:45:37;;;;;;;0.00;0.00;;;7.10;99.90;;;;;;5030596;28;20190;-73
2022/01/04 01:48:03;;;;;;;0.10;0.10;;;7.10;99.90;;;;;;5032096;28;20185;-73
2022/01/04 01:50:29;;;;;;;0.00;0.00;;;7.10;99.90;;;;;;5032208;28;20662;-74
2022/01/04 01:52:56;;;;;;;0.00;0.00;;;7.00;99.90;;;;;;5032014;28;20205;-74
2022/01/04 01:55:23;;;;;;;0.00;0.00;;;7.00;99.90;;;;;;5031945;28;20280;-73
2022/01/04 01:57:49;;;;;;;0.07;0.07;;;7.00;99.90;;;;;;5031845;28;20553;-73
2022/01/04 02:00:18;;;;;;;0.00;0.00;;;7.00;99.90;;;;;;5030718;28;20216;-74
2022/01/04 02:02:43;;;;;;;3.10;0.43;;;7.00;99.90;;;;;;5038617;28;20177;-74
2022/01/04 02:05:09;;;;;;;0.60;0.60;;;7.00;99.90;;;;;;5051460;28;20231;-74
2022/01/04 02:07:36;;;;;;;0.00;0.00;;;7.00;99.90;;;;;;5051427;28;20177;-73
2022/01/04 02:10:05;;;;;;;0.00;0.00;;;7.00;99.90;;;;;;5051462;28;20201;-73
2022/01/04 02:12:34;;;;;;;0.07;0.07;;;7.00;99.90;;;;;;5052706;28;20182;-74
2022/01/04 02:15:00;;;;;;;0.00;0.00;;;7.00;99.90;;;;;;5031239;28;20300;-72
2022/01/04 02:17:26;;;;;;;0.33;0.27;;;6.90;99.90;;;;;;5031489;28;20220;-73
2022/01/04 02:19:55;;;;;;;0.00;0.00;;;7.00;99.90;;;;;;5031618;28;20233;-73
2022/01/04 02:22:21;;;;;;;0.00;0.00;;;6.90;99.90;;;;;;5030375;28;20277;-74
2022/01/04 02:24:47;;;;;;;0.00;0.00;;;6.90;99.90;;;;;;5031396;28;20692;-74
2022/01/04 02:27:14;;;;;;;0.00;0.00;;;6.90;99.90;;;;;;5031395;28;20189;-73
2022/01/04 02:29:40;;;;;;;0.10;0.10;;;6.90;99.90;;;;;;5031422;28;20201;-73
2022/01/04 02:32:06;;;;;;;0.00;0.00;;;7.00;99.90;;;;;;5031658;28;20185;-73
2022/01/04 02:34:31;;;;;;;0.10;0.10;;;6.90;99.90;;;;;;5031139;28;20209;-73
2022/01/04 02:36:58;;;;;;;0.00;0.00;;;6.90;99.90;;;;;;5030927;28;20699;-73
2022/01/04 02:39:23;;;;;;;0.00;0.00;;;7.00;99.90;;;;;;5045345;28;20292;-73
2022/01/04 02:41:49;;;;;;;0.00;0.00;;;7.00;99.90;;;;;;5051366;28;20212;-73
2022/01/04 02:44:15;;;;;;;0.00;0.00;;;6.90;99.90;;;;;;5050967;28;20188;-74
2022/01/04 02:46:40;;;;;;;0.00;0.00;;;6.90;99.90;;;;;;5050977;28;20185;-74
2022/01/04 02:49:06;;;;;;;0.00;0.00;;;6.90;99.90;;;;;;5051111;28;20218;-73
2022/01/04 02:51:31;;;;;;;0.17;0.17;;;6.90;99.90;;;;;;5049778;28;20191;-73
2022/01/04 02:53:57;;;;;;;0.00;0.00;;;6.90;99.90;;;;;;5050381;28;20216;-74
2022/01/04 02:56:22;;;;;;;0.00;0.00;;;6.90;99.90;;;;;;5050753;28;20203;-73
2022/01/04 02:58:48;;;;;;;0.00;0.00;;;6.90;99.90;;;;;;5051060;28;20707;-73
2022/01/04 03:01:14;;;;;;;0.00;0.00;;;6.90;99.90;;;;;;5051046;28;20184;-73
2022/01/04 03:03:39;;;;;;;0.00;0.00;;;6.90;99.90;;;;;;5051022;28;20181;-73
2022/01/04 03:06:05;;;;;;;0.00;0.00;;;6.90;99.90;;;;;;5045762;28;20616;-73
2022/01/04 03:08:30;;;;;;;0.10;0.10;;;6.90;99.90;;;;;;5030999;28;20248;-73
2022/01/04 03:10:56;;;;;;;0.00;0.00;;;6.90;99.90;;;;;;5035353;28;20610;-74
2022/01/04 03:13:21;;;;;;;0.00;0.00;;;6.90;99.90;;;;;;5049508;28;20210;-73
2022/01/04 03:15:47;;;;;;;0.00;0.00;;;6.90;99.90;;;;;;5030576;28;20174;-73
2022/01/04 03:18:13;;;;;;;0.00;0.00;;;6.90;99.90;;;;;;5030496;28;20189;-73
2022/01/04 03:20:39;;;;;;;0.00;0.00;;;6.90;99.90;;;;;;5030858;28;20184;-73
2022/01/04 03:23:08;;;;;;;0.00;0.00;;;6.90;99.90;;;;;;5031020;28;20186;-73
2022/01/04 03:25:35;;;;;;;0.10;0.10;;;6.80;99.90;;;;;;5030654;28;20181;-73
2022/01/04 03:28:00;;;;;;;0.00;0.00;;;6.80;99.90;;;;;;5030606;28;20178;-73
2022/01/04 03:30:26;;;;;;;0.00;0.00;;;6.80;99.90;;;;;;5030864;28;20549;-73
2022/01/04 03:32:51;;;;;;;0.00;0.00;;;6.80;99.90;;;;;;5030776;28;20268;-72
2022/01/04 03:35:17;;;;;;;0.07;0.07;;;6.80;99.90;;;;;;5030683;28;20240;-73
2022/01/04 03:37:43;;;;;;;0.73;0.50;;;6.80;99.90;;;;;;5030489;28;20592;-73
2022/01/04 03:40:09;;;;;;;0.00;0.00;;;6.80;99.90;;;;;;5030769;28;20269;-73
2022/01/04 03:42:34;;;;;;;0.00;0.00;;;6.80;99.90;;;;;;5030915;28;20173;-73
2022/01/04 03:45:00;;;;;;;0.10;0.10;;;6.80;99.90;;;;;;5030682;28;20186;-73
2022/01/04 03:47:25;;;;;;;0.10;0.10;;;6.80;99.90;;;;;;5029296;28;20184;-73
2022/01/04 03:49:51;;;;;;;0.20;0.20;;;6.80;99.90;;;;;;5029233;28;20292;-73
2022/01/04 03:52:16;;;;;;;0.17;0.17;;;6.80;99.90;;;;;;5029297;28;20177;-73
2022/01/04 03:54:42;;;;;;;0.00;0.00;;;6.80;99.90;;;;;;5032036;28;20210;-72
2022/01/04 03:57:07;;;;;;;0.00;0.00;;;6.80;99.90;;;;;;5032409;28;20232;-73
2022/01/04 03:59:33;;;;;;;0.10;0.10;;;6.80;99.90;;;;;;5030624;28;20240;-74
2022/01/04 04:01:58;;;;;;;0.10;0.10;;;6.80;99.90;;;;;;5034314;28;20224;-73
2022/01/04 04:04:25;;;;;;;0.10;0.10;;;6.70;99.90;;;;;;5038189;28;20173;-74
2022/01/04 04:06:50;;;;;;;0.00;0.00;;;6.70;99.90;;;;;;5043064;28;20194;-74
2022/01/04 04:09:16;;;;;;;0.50;0.50;;;6.70;99.90;;;;;;5034287;28;20808;-74
2022/01/04 04:11:42;;;;;;;0.00;0.00;;;6.80;99.90;;;;;;5052627;28;20228;-73
2022/01/04 04:14:07;;;;;;;5.20;0.60;;;6.80;99.90;;;;;;5039231;28;20557;-73
2022/01/04 04:16:33;;;;;;;1.83;0.37;;;6.80;99.90;;;;;;5033362;28;20182;-73
2022/01/04 04:18:59;;;;;;;0.30;0.30;;;6.80;99.90;;;;;;5033981;28;20296;-74
2022/01/04 04:21:24;;;;;;;0.00;0.00;;;6.80;99.90;;;;;;5033973;28;20832;-73
2022/01/04 04:23:50;;;;;;;0.57;0.57;;;6.80;99.90;;;;;;5033992;28;20189;-73
2022/01/04 04:26:16;;;;;;;1.50;0.73;;;6.70;99.90;;;;;;5033351;28;20181;-73
2022/01/04 04:28:41;;;;;;;0.10;0.10;;;6.70;99.90;;;;;;5033686;28;20212;-73
2022/01/04 04:31:07;;;;;;;0.30;0.30;;;6.70;99.90;;;;;;5034148;28;20235;-73
2022/01/04 04:33:34;;;;;;;0.00;0.00;;;6.80;99.90;;;;;;5033599;28;20209;-73
2022/01/04 04:36:00;;;;;;;0.00;0.00;;;6.80;99.90;;;;;;5033417;28;20261;-73
2022/01/04 04:38:26;;;;;;;0.10;0.10;;;6.80;99.90;;;;;;5033711;28;20273;-73
2022/01/04 04:40:51;;;;;;;0.23;0.23;;;6.80;99.90;;;;;;5032459;28;20189;-73
2022/01/04 04:43:17;;;;;;;0.00;0.00;;;6.80;99.90;;;;;;5033563;28;20181;-73
2022/01/04 04:45:42;;;;;;;0.10;0.10;;;6.80;99.90;;;;;;5033124;28;20192;-72
2022/01/04 04:48:08;;;;;;;0.73;0.73;;;6.80;99.90;;;;;;5033290;28;20182;-73
2022/01/04 04:50:34;;;;;;;0.00;0.00;;;6.80;99.90;;;;;;5033250;28;20193;-73
2022/01/04 04:53:00;;;;;;;0.63;0.63;;;6.80;99.90;;;;;;5033502;28;20178;-73
2022/01/04 04:55:25;;;;;;;0.20;0.20;;;6.80;99.90;;;;;;5033228;28;20218;-73
2022/01/04 04:57:51;;;;;;;0.13;0.13;;;6.80;99.90;;;;;;5031756;28;20174;-73
2022/01/04 05:00:17;;;;;;;0.77;0.77;;;6.70;99.90;;;;;;5031913;28;20209;-73
2022/01/04 05:02:43;;;;;;;0.77;0.77;;;6.80;99.90;;;;;;5033315;28;20200;-73
2022/01/04 05:05:09;;;;;;;1.53;1.43;;;6.80;99.90;;;;;;5043261;28;20188;-73
2022/01/04 05:07:35;;;;;;;0.00;0.00;;;6.70;99.90;;;;;;5068147;28;20181;-73
2022/01/04 05:10:03;;;;;;;0.10;0.10;;;6.70;99.90;;;;;;5053056;28;20205;-74
2022/01/04 05:12:29;;;;;;;0.67;0.67;;;6.70;99.90;;;;;;5059346;28;20561;-74
2022/01/04 05:14:54;;;;;;;1.33;1.33;;;6.70;99.90;;;;;;5032685;28;20201;-74
2022/01/04 05:17:20;;;;;;;1.30;1.17;;;6.70;99.90;;;;;;5032413;28;20196;-74
2022/01/04 05:19:45;;;;;;;0.07;0.07;;;6.70;99.90;;;;;;5090916;22;20221;-76
2022/01/04 05:22:11;;;;;;;0.43;0.43;;;6.70;99.90;;;;;;5055942;28;20188;-74
2022/01/04 05:24:37;;;;;;;1.17;0.77;;;6.60;99.90;;;;;;5054591;28;20489;-74
2022/01/04 05:27:03;;;;;;;0.10;0.10;;;6.70;99.90;;;;;;5055208;28;20190;-76
2022/01/04 05:29:28;;;;;;;0.10;0.10;;;6.70;99.90;;;;;;5062305;28;20208;-76
2022/01/04 05:31:54;;;;;;;0.03;0.03;;;6.60;99.90;;;;;;5076546;28;20187;-75
2022/01/04 05:34:20;;;;;;;0.13;0.13;;;6.70;99.90;;;;;;5075617;28;20223;-74
2022/01/04 05:36:45;;;;;;;0.20;0.20;;;6.70;99.90;;;;;;5075949;28;20172;-74
2022/01/04 05:39:11;;;;;;;0.00;0.00;;;6.70;99.90;;;;;;5074980;28;20208;-74
2022/01/04 05:41:36;;;;;;;0.60;0.60;;;6.60;99.90;;;;;;5074615;28;20180;-74
2022/01/04 05:44:02;;;;;;;1.27;1.17;;;6.60;99.90;;;;;;5074285;28;20184;-74
2022/01/04 05:46:28;;;;;;;0.43;0.43;;;6.60;99.90;;;;;;5076651;28;20191;-73
2022/01/04 05:48:54;;;;;;;0.50;0.50;;;6.60;99.90;;;;;;5075015;28;20189;-74
2022/01/04 05:51:20;;;;;;;0.30;0.30;;;6.60;99.90;;;;;;5075456;28;20207;-75
2022/01/04 05:53:45;;;;;;;0.40;0.30;;;6.60;99.90;;;;;;5061548;28;20208;-73
2022/01/04 05:56:11;;;;;;;0.30;0.30;;;6.60;99.90;;;;;;5049629;28;20185;-75
2022/01/04 05:58:37;;;;;;;0.77;0.77;;;6.60;99.90;;;;;;5064351;28;20184;-73
2022/01/04 06:01:02;;;;;;;0.00;0.00;;;6.60;99.90;;;;;;5074643;28;20184;-75
2022/01/04 06:03:28;;;;;;;0.20;0.20;;;6.60;99.90;;;;;;5076025;28;20259;-74
2022/01/04 06:05:54;;;;;;;0.00;0.00;;;6.60;99.90;;;;;;5061804;28;20177;-76
2022/01/04 06:08:21;;;;;;;0.13;0.13;;;6.60;99.90;;;;;;5075931;28;20172;-76
2022/01/04 06:10:51;;;;;;;1.20;0.83;;;6.60;99.90;;;;;;5075491;28;20219;-76
2022/01/04 06:16:01;;;;;;;1.20;1.20;;;6.60;99.90;;;;;;5076637;28;20563;-77
2022/01/04 06:18:26;;;;;;;1.70;1.43;;;6.60;99.90;;;;;;5077494;28;20168;-76
2022/01/04 06:20:53;;;;;;;0.10;0.10;;;6.60;99.90;;;;;;5075669;28;20251;-76
2022/01/04 06:23:19;;;;;;;0.33;0.33;;;6.60;99.90;;;;;;5076787;28;20176;-76
2022/01/04 06:25:44;;;;;;;0.47;0.47;;;6.60;99.90;;;;;;5076238;28;20260;-74
2022/01/04 06:28:10;;;;;;;0.10;0.10;;;6.60;99.90;;;;;;5077264;28;20180;-76
2022/01/04 06:30:36;;;;;;;0.20;0.20;;;6.70;99.90;;;;;;5076534;28;20226;-75
2022/01/04 06:33:01;;;;;;;0.10;0.10;;;6.70;99.90;;;;;;5061596;28;20188;-76
2022/01/04 06:35:29;;;;;;;5.10;1.03;;;6.70;99.90;;;;;;5074106;28;20263;-76
2022/01/04 06:37:55;;;;;;;0.00;0.00;;;6.70;99.90;;;;;;5076750;28;20180;-76
2022/01/04 06:40:21;;;;;;;0.47;0.30;;;6.60;99.90;;;;;;5076927;28;20709;-76
2022/01/04 06:42:46;;;;;;;0.10;0.10;;;6.70;99.90;;;;;;5077561;28;20176;-75
2022/01/04 06:45:13;;;;;;;0.20;0.20;;;6.70;99.90;;;;;;5074712;28;20709;-75
2022/01/04 06:47:39;;;;;;;0.50;0.50;;;6.70;99.90;;;;;;5073986;28;20263;-74
2022/01/04 06:50:06;;;;;;;0.00;0.00;;;6.60;99.90;;;;;;5075302;28;20642;-75
2022/01/04 06:52:32;;;;;;;0.20;0.20;;;6.60;99.90;;;;;;5074915;28;20181;-76
2022/01/04 06:54:57;;;;;;;0.00;0.00;;;6.60;99.90;;;;;;5074582;28;20701;-76
2022/01/04 06:57:23;;;;;;;0.10;0.10;;;6.60;99.90;;;;;;5063692;28;20173;-75
2022/01/04 06:59:49;;;;;;;0.00;0.00;;;6.60;99.90;;;;;;5073100;28;20219;-75
2022/01/04 07:02:14;;;;;;;0.00;0.00;;;6.60;99.90;;;;;;5074891;28;20180;-75
2022/01/04 07:04:40;;;;;;;0.10;0.10;;;6.60;99.90;;;;;;5070054;28;20177;-74
2022/01/04 07:07:05;;;;;;;0.00;0.00;;;6.60;99.90;;;;;;5069011;28;20715;-75
2022/01/04 07:09:31;;;;;;;0.73;0.47;;;6.60;99.90;;;;;;5076668;28;20211;-76
2022/01/04 07:11:57;;;;;;;1.30;0.40;;;6.60;99.90;;;;;;5077940;28;20172;-76
2022/01/04 07:14:23;;;;;;;1.50;1.17;;;6.60;99.90;;;;;;5078706;28;20199;-76
2022/01/04 07:16:48;;;;;;;0.20;0.20;;;6.60;99.90;;;;;;5076995;28;20176;-76
2022/01/04 07:19:15;;;;;;;0.20;0.20;;;6.60;99.90;;;;;;5077381;28;20272;-75
2022/01/04 07:21:41;;;;;;;0.77;0.77;;;6.60;99.90;;;;;;5078362;28;20658;-76
2022/01/04 07:24:07;;;;;;;0.87;0.87;;;6.70;99.90;;;;;;5076758;28;20255;-76
2022/01/04 07:26:32;;;;;;;0.20;0.20;;;6.60;99.90;;;;;;5075756;28;20176;-76
2022/01/04 07:28:58;;;;;;;1.07;0.97;;;6.60;99.90;;;;;;5070468;28;20201;-76
2022/01/04 07:31:24;;;;;;;0.10;0.10;;;6.60;99.90;;;;;;5067888;28;20182;-76
2022/01/04 07:33:50;;;;;;;0.40;0.40;;;6.60;99.90;;;;;;5075018;28;20196;-77
2022/01/04 07:36:15;;;;;;;0.10;0.10;;;6.70;99.90;;;;;;5076209;28;20176;-76
2022/01/04 07:38:42;;;;;;;0.17;0.17;;;6.70;99.90;;;;;;5077681;28;20669;-75
2022/01/04 07:41:07;;;;;;;0.27;0.27;;;6.60;99.90;;;;;;5083065;28;20576;-74
2022/01/04 07:43:34;;;;;;;2.13;1.03;;;6.70;99.90;;;;;;5072235;28;20176;-75
2022/01/04 07:46:00;;;;;;;0.20;0.20;;;6.70;99.90;;;;;;5078862;28;20571;-75
2022/01/04 07:48:26;;;;;;;0.80;0.80;;;6.80;99.90;;;;;;5080251;28;20188;-75
2022/01/04 07:50:55;;;;;;;0.93;0.93;;;6.70;99.90;;;;;;5067241;28;20210;-75
2022/01/04 07:53:22;;;;;;;0.00;0.00;;;6.70;99.90;;;;;;5077904;28;20196;-76
2022/01/04 07:55:48;;;;;;;0.27;0.27;;;6.70;99.90;;;;;;5068526;28;20260;-76
2022/01/04 07:58:13;;;;;;;0.17;0.17;;;6.70;99.90;;;;;;5064099;28;20185;-75
2022/01/04 08:00:39;;;;;;;0.80;0.80;;;6.70;99.90;;;;;;5060058;28;20200;-75
2022/01/04 08:03:06;;;;;;;0.17;0.17;;;6.70;99.90;;;;;;5064707;28;20208;-75
2022/01/04 08:05:32;;;;;;;0.40;0.40;;;6.80;99.90;;;;;;5061175;28;20169;-75
2022/01/04 08:07:58;;;;;;;1.27;0.97;;;6.70;99.90;;;;;;5077953;28;20181;-76
2022/01/04 08:10:23;;;;;;;0.40;0.40;;;6.70;99.90;;;;;;5078647;28;20242;-75
2022/01/04 08:12:49;;;;;;;4.30;2.43;;;6.70;99.90;;;;;;5077978;28;20181;-75
2022/01/04 08:15:16;;;;;;;1.10;0.30;;;6.70;99.90;;;;;;5079441;28;20214;-75
2022/01/04 08:17:42;;;;;;;0.83;0.83;;;6.70;99.90;;;;;;5079376;28;20187;-75
2022/01/04 08:20:08;;;;;;;0.80;0.80;;;6.70;99.90;;;;;;5074923;28;20235;-75
2022/01/04 08:22:35;;;;;;;0.37;0.37;;;6.70;99.90;;;;;;5071820;28;20196;-75
2022/01/04 08:25:06;;;;;;;0.10;0.10;;;6.80;99.90;;;;;;5071560;28;20242;-76
2022/01/04 08:27:32;;;;;;;1.47;1.37;;;6.70;99.90;;;;;;5077496;28;20593;-76
2022/01/04 08:29:58;;;;;;;2.00;1.03;;;6.70;99.90;;;;;;5075972;28;20251;-76
2022/01/04 08:32:24;;;;;;;0.10;0.10;;;6.60;99.90;;;;;;5076894;28;20172;-75
2022/01/04 08:34:50;;;;;;;1.63;1.53;;;6.70;99.90;;;;;;5076535;28;20204;-76
2022/01/04 08:37:16;;;;;;;1.97;1.70;;;6.70;99.90;;;;;;5075013;28;20275;-75
2022/01/04 08:39:41;;;;;;;1.73;1.23;;;6.80;99.90;;;;;;5075919;28;20207;-76
2022/01/04 08:42:08;;;;;;;0.53;0.53;;;6.80;99.90;;;;;;5076221;28;20666;-75
2022/01/04 08:44:36;;;;;;;1.13;0.43;;;6.80;99.90;;;;;;5078013;28;20173;-75
2022/01/04 08:47:02;;;;;;;0.50;0.37;;;6.80;99.90;;;;;;5078645;28;20169;-75
2022/01/04 08:49:30;;;;;;;1.27;1.17;;;6.80;99.90;;;;;;5076847;28;20266;-75
2022/01/04 08:51:55;;;;;;;0.67;0.67;;;6.80;99.90;;;;;;5078586;28;20236;-76
2022/01/04 08:54:21;;;;;;;4.67;1.07;;;6.80;99.90;;;;;;5078235;28;20242;-74
2022/01/04 08:56:46;;;;;;;1.13;1.03;;;6.90;99.90;;;;;;5077280;28;20168;-76
2022/01/04 08:59:13;;;;;;;0.20;0.20;;;6.90;99.90;;;;;;5076888;28;20253;-76
2022/01/04 09:01:39;;;;;;;0.30;0.30;;;6.90;99.90;;;;;;5078895;28;20165;-76
2022/01/04 09:04:06;;;;;;;0.20;0.20;;;7.00;99.90;;;;;;5076556;28;20192;-76
2022/01/04 09:06:33;;;;;;;1.67;0.50;;;7.00;99.90;;;;;;5065265;28;20696;-76
2022/01/04 09:08:59;;;;;;;3.23;2.20;;;7.00;99.90;;;;;;5076990;28;20192;-76
2022/01/04 09:11:25;;;;;;;4.33;1.47;;;6.90;99.90;;;;;;5075563;28;20176;-75
2022/01/04 09:13:55;;;;;;;4.93;1.03;;;6.90;99.90;;;;;;5077873;28;20228;-76
2022/01/04 09:19:05;;;;;;;1.07;1.07;;;6.90;99.90;;;;;;5077786;28;20270;-75
2022/01/04 09:21:31;;;;;;;0.20;0.20;;;6.90;99.90;;;;;;5077751;28;20184;-75
2022/01/04 09:23:59;;;;;;;1.90;1.80;;;7.00;99.90;;;;;;5077308;28;20176;-76
2022/01/04 09:26:26;;;;;;;2.30;0.67;;;7.00;99.90;;;;;;5077190;28;20181;-76
2022/01/04 09:28:52;;;;;;;0.73;0.73;;;7.00;99.90;;;;;;5076013;28;20246;-75
2022/01/04 09:31:21;;;;;;;1.37;0.60;;;7.00;99.90;;;;;;5076241;28;20180;-75
2022/01/04 09:33:47;;;;;;;0.30;0.30;;;7.10;99.90;;;;;;5076339;28;20683;-75
2022/01/04 09:36:13;;;;;;;1.33;1.30;;;7.10;99.90;;;;;;5074790;28;20194;-74
2022/01/04 09:38:38;;;;;;;0.73;0.60;;;7.20;99.90;;;;;;5073660;28;20177;-76
2022/01/04 09:41:04;;;;;;;1.50;0.33;;;7.10;99.90;;;;;;5074696;28;20173;-75
2022/01/04 09:43:30;;;;;;;0.50;0.50;;;7.20;99.90;;;;;;5074763;28;20196;-75
2022/01/04 09:45:56;;;;;;;2.07;1.73;;;7.20;99.90;;;;;;5076493;28;20206;-75
2022/01/04 09:48:21;;;;;;;0.70;0.70;;;7.20;99.90;;;;;;5078148;28;20655;-75
2022/01/04 09:50:48;;;;;;;1.63;1.43;;;7.20;99.90;;;;;;5076970;28;20683;-75
2022/01/04 09:53:22;;;;;;;0.20;0.20;;;7.30;99.90;;;;;;5075210;28;20203;-75
2022/01/04 09:55:50;;;;;;;0.30;0.30;;;7.20;99.90;;;;;;5076756;28;20214;-75
2022/01/04 09:58:18;;;;;;;0.33;0.33;;;7.10;99.90;;;;;;5076446;28;20192;-76
2022/01/04 10:00:45;;;;;;;3.03;2.73;;;7.20;99.90;;;;;;5078521;28;20214;-76
2022/01/04 10:03:28;;;;;;;0.87;0.87;;;7.20;99.90;;;;;;5080334;28;20172;-75
2022/01/04 10:06:14;;;;;;;1.50;1.40;;;7.20;99.90;;;;;;5064502;28;20180;-76
2022/01/04 10:08:56;;;;;;;0.97;0.57;;;7.20;99.90;;;;;;5080184;28;20189;-76
2022/01/04 10:11:33;;;;;;;0.70;0.70;;;7.10;99.90;;;;;;5079912;28;20249;-75
2022/01/04 10:14:00;;;;;;;0.70;0.70;;;7.20;99.90;;;;;;5080244;28;20242;-76
2022/01/04 10:16:26;;;;;;;0.73;0.43;;;7.20;99.90;;;;;;5082360;28;20552;-75
2022/01/04 10:18:53;;;;;;;1.80;1.03;;;7.20;99.90;;;;;;5083822;28;20180;-75
2022/01/04 10:21:19;;;;;;;2.90;2.20;;;7.30;99.90;;;;;;5073731;28;20206;-75
2022/01/04 10:23:47;;;;;;;0.10;0.10;;;7.30;99.90;;;;;;5073992;28;20549;-75
2022/01/04 10:26:13;;;;;;;0.83;0.83;;;7.20;99.90;;;;;;5073660;28;20182;-75
2022/01/04 10:28:45;;;;;;;0.50;0.50;;;7.20;99.90;;;;;;5074711;28;20263;-75
2022/01/04 10:31:17;;;;;;;0.57;0.37;;;7.20;99.90;;;;;;5074491;28;20221;-74
2022/01/04 10:33:43;;;;;;;0.30;0.30;;;7.20;99.90;;;;;;5074286;28;20211;-74
2022/01/04 10:36:11;;;;;;;5.30;0.50;;;7.10;99.90;;;;;;5073059;28;20184;-75
2022/01/04 10:38:40;;;;;;;1.40;1.13;;;7.10;99.90;;;;;;5074853;28;20172;-75
2022/01/04 10:41:09;;;;;;;0.93;0.77;;;7.20;99.90;;;;;;5074583;28;20172;-75
2022/01/04 10:44:03;;;;;;;1.07;1.07;;;7.20;99.90;;;;;;5074946;28;20176;-75
2022/01/04 10:46:53;;;;;;;0.60;0.60;;;7.20;99.90;;;;;;5075445;28;20172;-76
2022/01/04 10:49:21;;;;;;;0.80;0.80;;;7.20;99.90;;;;;;5074211;28;20346;-76
2022/01/04 10:52:06;;;;;;;0.20;0.20;;;7.20;99.90;;;;;;5075382;28;20184;-76
2022/01/04 10:54:31;;;;;;;0.47;0.43;;;7.20;99.90;;;;;;5074081;28;20605;-76
2022/01/04 10:57:08;;;;;;;0.30;0.30;;;7.20;99.90;;;;;;5075356;28;20222;-75
2022/01/04 10:59:34;;;;;;;0.20;0.20;;;7.20;99.90;;;;;;5075616;28;20207;-75
2022/01/04 11:02:00;;;;;;;0.13;0.13;;;7.20;99.90;;;;;;5073320;28;20267;-74
2022/01/04 11:04:26;;;;;;;0.00;0.00;;;7.20;99.90;;;;;;5069224;28;20243;-75
2022/01/04 11:06:59;;;;;;;0.80;0.80;;;7.20;99.90;;;;;;5065784;28;20187;-75
2022/01/04 11:09:25;;;;;;;0.13;0.13;;;7.20;99.90;;;;;;5075048;28;20226;-76
2022/01/04 11:11:51;;;;;;;0.10;0.10;;;7.10;99.90;;;;;;5078469;28;20176;-75
2022/01/04 11:14:16;;;;;;;1.00;1.00;;;7.20;99.90;;;;;;5078606;28;20211;-76
2022/01/04 11:16:42;;;;;;;0.33;0.33;;;7.10;99.90;;;;;;5077031;28;20712;-76
2022/01/04 11:21:40;;;;;;;0.10;0.10;;;7.10;99.90;;;;;;5051651;22;20257;-73
2022/01/04 11:24:08;;;;;;;0.57;0.57;;;7.10;99.90;;;;;;5034783;28;20733;-72
2022/01/04 11:26:34;;;;;;;0.00;0.00;;;7.20;99.90;;;;;;5016957;28;20683;-72
2022/01/04 11:29:00;;;;;;;1.70;1.60;;;7.20;99.90;;;;;;5034669;28;20719;-72
2022/01/04 11:31:47;;;;;;;0.43;0.43;;;7.20;99.90;;;;;;5016951;28;20692;-72
2022/01/04 11:34:37;;;;;;;0.40;0.40;;;7.20;99.90;;;;;;5034456;28;20193;-73
2022/01/04 11:37:03;;;;;;;0.27;0.27;;;7.20;99.90;;;;;;5034427;28;20174;-73
2022/01/04 11:39:38;;;;;;;1.23;0.43;;;7.20;99.90;;;;;;5035085;28;20537;-73
2022/01/04 11:42:08;;;;;;;0.20;0.20;;;7.20;99.90;;;;;;5017638;28;20181;-73
2022/01/04 11:44:45;;;;;;;0.30;0.30;;;7.30;99.90;;;;;;5035397;28;20182;-74
2022/01/04 11:47:17;;;;;;;0.60;0.60;;;7.30;99.90;;;;;;5016478;28;20189;-74
2022/01/04 11:50:13;;;;;;;0.47;0.47;;;7.30;99.90;;;;;;5034696;28;20205;-73
2022/01/04 11:52:47;;;;;;;3.10;1.23;;;7.30;99.90;;;;;;5034412;28;20173;-73
2022/01/04 11:55:26;;;;;;;0.43;0.43;;;7.30;99.90;;;;;;5033735;28;20232;-74
2022/01/04 11:58:18;;;;;;;1.43;1.00;;;7.30;99.90;;;;;;5034093;28;20287;-74
2022/01/04 12:00:54;;;;;;;3.40;2.53;;;7.40;99.90;;;;;;5034252;28;20205;-74
2022/01/04 12:03:20;;;;;;;0.17;0.17;;;7.50;99.90;;;;;;5034241;28;20180;-74
2022/01/04 12:05:55;;;;;;;0.60;0.60;;;7.50;99.90;;;;;;5016197;28;20182;-74
2022/01/04 12:09:00;;;;;;;0.47;0.47;;;7.50;99.90;;;;;;5033886;28;20185;-73
2022/01/04 12:11:25;;;;;;;1.27;0.90;;;7.60;99.90;;;;;;5038800;28;20232;-73
2022/01/04 12:13:54;;;;;;;0.10;0.10;;;7.60;99.90;;;;;;5020487;28;20198;-73
2022/01/04 12:16:37;;;;;;;0.13;0.13;;;7.60;99.90;;;;;;5015809;28;20181;-74
2022/01/04 12:19:07;;;;;;;0.43;0.43;;;7.60;99.90;;;;;;5034106;28;20182;-74
2022/01/04 12:21:35;;;;;;;0.60;0.60;;;7.60;99.90;;;;;;5033094;28;20751;-73
2022/01/04 12:24:02;;;;;;;0.50;0.50;;;7.60;99.90;;;;;;5033929;28;20197;-74
2022/01/04 12:26:32;;;;;;;1.70;0.63;;;7.60;99.90;;;;;;5033533;28;20181;-73
2022/01/04 12:28:58;;;;;;;0.63;0.43;;;7.60;99.90;;;;;;5033009;28;20533;-73
2022/01/04 12:31:27;;;;;;;0.93;0.93;;;7.60;99.90;;;;;;5015999;28;20869;-74
2022/01/04 12:33:55;;;;;;;0.80;0.80;;;7.60;99.90;;;;;;5033854;28;20217;-73
2022/01/04 12:36:27;;;;;;;0.10;0.10;;;7.60;99.90;;;;;;5015467;28;20221;-73
2022/01/04 12:38:55;;;;;;;1.30;1.20;;;7.60;99.90;;;;;;5015813;28;20181;-73
2022/01/04 12:41:21;;;;;;;1.57;1.47;;;7.60;99.90;;;;;;5033298;28;20600;-73
2022/01/04 12:43:49;;;;;;;1.00;0.67;;;7.70;99.90;;;;;;5015726;28;20214;-74
2022/01/04 12:46:27;;;;;;;0.93;0.93;;;7.70;99.90;;;;;;5033051;28;20185;-73
2022/01/04 12:48:59;;;;;;;1.27;1.17;;;7.70;99.90;;;;;;5033423;28;20661;-74
2022/01/04 12:51:44;;;;;;;3.57;2.83;;;7.70;99.90;;;;;;5015414;28;20197;-73
2022/01/04 12:54:15;;;;;;;1.53;1.47;;;7.70;99.90;;;;;;5032987;28;20201;-74
2022/01/04 12:56:50;;;;;;;0.60;0.60;;;7.70;99.90;;;;;;5032877;28;20382;-73
2022/01/04 12:59:30;;;;;;;2.23;1.40;;;7.70;99.90;;;;;;5033185;28;20171;-74
2022/01/04 13:01:58;;;;;;;1.43;1.33;;;7.80;99.90;;;;;;5033008;28;20300;-73
2022/01/04 13:04:27;;;;;;;1.30;1.30;;;7.80;99.90;;;;;;5033062;28;20185;-73
2022/01/04 13:06:53;;;;;;;1.63;1.53;;;7.80;99.90;;;;;;5015160;28;20214;-73
2022/01/04 13:09:20;;;;;;;3.07;1.90;;;7.90;99.90;;;;;;5032812;28;20209;-73